createdAt,value
2023-07-22T00:03:13.502Z,7.00
2023-07-22T00:08:14.986Z,6.88
2023-07-22T00:13:16.355Z,7.18
2023-07-22T00:18:17.699Z,10.52
2023-07-22T00:23:19.133Z,7.45
2023-07-22T00:28:20.599Z,7.40
2023-07-22T00:33:22.162Z,8.10
2023-07-22T00:38:23.598Z,8.73
2023-07-22T00:43:26.799Z,9.75
2023-07-22T00:48:28.899Z,5.65
2023-07-22T00:53:30.333Z,9.45
2023-07-22T00:58:32.068Z,6.43
2023-07-22T01:03:33.542Z,7.03
2023-07-22T01:08:34.930Z,7.00
2023-07-22T01:13:36.290Z,8.80
2023-07-22T01:18:38.892Z,8.18
2023-07-22T01:23:40.423Z,8.05
2023-07-22T01:28:41.773Z,8.05
2023-07-22T01:33:43.128Z,10.40
2023-07-22T01:38:44.456Z,6.00
2023-07-22T01:43:45.806Z,8.10
2023-07-22T01:48:47.145Z,11.55
2023-07-22T01:53:49.131Z,14.02
2023-07-22T01:58:50.557Z,13.00
2023-07-22T02:03:51.987Z,8.50
2023-07-22T02:08:53.445Z,6.55
2023-07-22T02:13:54.806Z,10.75
2023-07-22T02:18:56.151Z,8.20
2023-07-22T02:23:57.599Z,8.70
2023-07-22T02:28:59.142Z,8.23
2023-07-22T02:34:00.555Z,6.97
2023-07-22T02:39:01.946Z,9.30
2023-07-22T02:44:04.666Z,8.40
2023-07-22T02:49:06.305Z,10.63
2023-07-22T02:54:07.741Z,10.02
2023-07-22T02:59:10.660Z,11.98
2023-07-22T03:04:13.602Z,9.32
2023-07-22T03:09:14.995Z,8.57
2023-07-22T03:14:16.390Z,9.30
2023-07-22T03:19:17.767Z,11.25
2023-07-22T03:24:19.183Z,7.93
2023-07-22T03:29:20.557Z,7.43
2023-07-22T03:34:21.979Z,9.10
2023-07-22T03:39:23.615Z,6.40
2023-07-22T03:44:25.551Z,8.30
2023-07-22T03:49:26.954Z,10.75
2023-07-22T03:54:28.309Z,6.47
2023-07-22T03:59:29.777Z,8.70
2023-07-22T04:04:31.198Z,9.13
2023-07-22T04:09:32.574Z,12.98
2023-07-22T04:14:34.194Z,5.85
2023-07-22T04:19:35.720Z,7.28
2023-07-22T04:24:37.219Z,14.15
2023-07-22T04:29:38.641Z,11.88
2023-07-22T04:34:40.534Z,11.20
2023-07-22T04:39:41.911Z,17.50
2023-07-22T04:44:43.397Z,16.52
2023-07-22T04:49:44.768Z,14.52
2023-07-22T04:54:48.517Z,10.13
2023-07-22T04:59:49.912Z,10.73
2023-07-22T05:04:51.264Z,12.50
2023-07-22T05:09:52.784Z,11.82
2023-07-22T05:14:54.169Z,7.20
2023-07-22T05:19:55.519Z,10.05
2023-07-22T05:24:57.449Z,10.50
2023-07-22T05:29:58.890Z,13.23
2023-07-22T05:35:00.330Z,26.92
2023-07-22T05:40:02.710Z,19.73
2023-07-22T05:45:04.733Z,17.55
2023-07-22T05:50:07.577Z,15.18
2023-07-22T05:55:09.136Z,11.93
2023-07-22T06:00:13.908Z,17.50
2023-07-22T06:05:15.541Z,12.52
2023-07-22T06:10:16.976Z,13.20
2023-07-22T06:15:18.591Z,12.45
2023-07-22T06:20:19.981Z,14.52
2023-07-22T06:25:21.619Z,14.23
2023-07-22T06:30:23.207Z,12.35
2023-07-22T06:35:24.584Z,8.30
2023-07-22T06:40:26.391Z,10.48
2023-07-22T06:45:28.312Z,6.85
2023-07-22T06:50:29.690Z,6.25
2023-07-22T06:55:31.827Z,8.02
2023-07-22T07:00:33.256Z,8.80
2023-07-22T07:05:35.919Z,7.75
2023-07-22T07:10:40.015Z,8.30
2023-07-22T07:15:41.681Z,6.50
2023-07-22T07:20:43.579Z,7.07
2023-07-22T07:25:45.608Z,13.32
2023-07-22T07:30:46.997Z,7.50
2023-07-22T07:35:48.470Z,8.27
2023-07-22T07:40:58.246Z,11.65
2023-07-22T07:46:22.970Z,11.05
2023-07-22T07:51:27.508Z,7.97
2023-07-22T07:56:30.204Z,9.82
2023-07-22T08:01:31.944Z,6.88
2023-07-22T08:06:34.094Z,5.90
2023-07-22T08:11:35.477Z,6.85
2023-07-22T08:16:36.990Z,7.07
2023-07-22T08:21:39.454Z,4.53
2023-07-22T08:26:40.837Z,7.78
2023-07-22T08:31:45.249Z,5.90
2023-07-22T08:36:46.659Z,10.07
2023-07-22T08:41:51.281Z,6.75
2023-07-22T08:46:57.083Z,4.38
2023-07-22T08:51:59.224Z,7.07
2023-07-22T08:57:00.728Z,6.95
2023-07-22T09:02:02.489Z,9.52
2023-07-22T09:07:04.245Z,3.83
2023-07-22T09:12:07.148Z,6.00
2023-07-22T09:17:08.548Z,2.08
2023-07-22T09:22:10.402Z,3.10
2023-07-22T09:27:11.761Z,4.85
2023-07-22T09:32:13.164Z,3.05
2023-07-22T09:37:14.563Z,4.22
2023-07-22T09:42:25.582Z,5.10
2023-07-22T09:47:27.277Z,6.28
2023-07-22T09:52:30.021Z,2.65
2023-07-22T09:57:34.090Z,3.00
2023-07-22T10:02:37.037Z,3.97
2023-07-22T10:07:40.286Z,2.63
2023-07-22T10:12:42.996Z,3.58
2023-07-22T10:17:45.603Z,4.55
2023-07-22T10:22:48.547Z,3.70
2023-07-22T10:27:53.244Z,1.95
2023-07-22T10:32:55.316Z,6.70
2023-07-22T10:37:57.349Z,1.85
2023-07-22T10:43:06.963Z,2.95
2023-07-22T10:48:13.894Z,2.20
2023-07-22T10:53:21.198Z,4.75
2023-07-22T10:58:24.721Z,2.83
2023-07-22T11:03:26.137Z,4.45
2023-07-22T11:08:38.888Z,2.22
2023-07-22T11:13:42.025Z,4.07
2023-07-22T11:18:43.509Z,2.53
2023-07-22T11:23:44.977Z,1.58
2023-07-22T11:28:47.699Z,1.77
2023-07-22T11:33:49.419Z,1.25
2023-07-22T11:38:51.138Z,2.25
2023-07-22T11:43:52.732Z,2.85
2023-07-22T11:48:55.696Z,1.95
2023-07-22T11:53:57.091Z,1.67
2023-07-22T11:58:58.976Z,2.42
2023-07-22T12:04:00.992Z,3.05
2023-07-22T12:09:02.757Z,1.13
2023-07-22T12:14:15.145Z,2.70
2023-07-22T12:19:17.032Z,2.75
2023-07-22T12:24:18.844Z,3.17
2023-07-22T12:29:20.551Z,3.83
2023-07-22T12:34:21.936Z,3.85
2023-07-22T12:39:23.299Z,2.60
2023-07-22T12:44:24.698Z,3.42
2023-07-22T12:49:26.781Z,3.78
2023-07-22T12:54:28.172Z,3.67
2023-07-22T12:59:29.594Z,4.65
2023-07-22T13:04:30.959Z,5.80
2023-07-22T13:09:32.352Z,2.63
2023-07-22T13:14:33.699Z,2.92
2023-07-22T13:19:35.056Z,2.78
2023-07-22T13:24:36.694Z,1.30
2023-07-22T13:29:38.197Z,2.63
2023-07-22T13:34:39.898Z,2.58
2023-07-22T13:39:41.370Z,3.22
2023-07-22T13:44:43.780Z,1.98
2023-07-22T13:49:45.185Z,3.25
2023-07-22T13:54:46.834Z,1.80
2023-07-22T13:59:48.228Z,1.58
2023-07-22T14:04:49.799Z,2.15
2023-07-22T14:09:51.242Z,2.13
2023-07-22T14:14:52.684Z,2.58
2023-07-22T14:19:54.068Z,3.40
2023-07-22T14:24:55.455Z,2.35
2023-07-22T14:29:56.875Z,1.50
2023-07-22T14:34:58.274Z,1.95
2023-07-22T14:40:00.223Z,1.75
2023-07-22T14:45:01.640Z,2.08
2023-07-22T14:50:05.704Z,1.85
2023-07-22T14:55:07.608Z,1.50
2023-07-22T15:00:11.876Z,2.35
2023-07-22T15:05:13.484Z,4.20
2023-07-22T15:10:16.130Z,2.58
2023-07-22T15:15:18.932Z,2.47
2023-07-22T15:20:20.511Z,3.53
2023-07-22T15:25:21.888Z,5.15
2023-07-22T15:30:23.349Z,3.70
2023-07-22T15:35:24.971Z,2.80
2023-07-22T15:40:26.577Z,3.20
2023-07-22T15:45:28.062Z,1.48
2023-07-22T15:50:29.683Z,3.28
2023-07-22T15:55:31.048Z,1.92
2023-07-22T16:00:32.623Z,1.20
2023-07-22T16:05:34.034Z,3.13
2023-07-22T16:10:35.711Z,1.45
2023-07-22T16:15:37.456Z,1.52
2023-07-22T16:20:39.216Z,1.38
2023-07-22T16:25:40.619Z,6.53
2023-07-22T16:30:42.005Z,2.10
2023-07-22T16:35:43.738Z,1.35
2023-07-22T16:40:45.157Z,2.40
2023-07-22T16:45:46.618Z,3.30
2023-07-22T16:50:48.018Z,1.35
2023-07-22T16:55:49.428Z,2.78
2023-07-22T17:00:50.878Z,7.15
2023-07-22T17:05:52.260Z,1.90
2023-07-22T17:10:54.022Z,1.98
2023-07-22T17:15:55.596Z,3.20
2023-07-22T17:20:56.982Z,2.38
2023-07-22T17:25:58.438Z,2.28
2023-07-22T17:31:00.830Z,3.50
2023-07-22T17:36:02.226Z,4.90
2023-07-22T17:41:03.684Z,2.75
2023-07-22T17:46:05.813Z,3.67
2023-07-22T17:51:07.280Z,2.75
2023-07-22T17:56:08.648Z,3.22
2023-07-22T18:01:10.044Z,4.35
2023-07-22T18:06:11.474Z,2.97
2023-07-22T18:11:12.820Z,4.05
2023-07-22T18:16:14.187Z,4.38
2023-07-22T18:21:16.235Z,3.05
2023-07-22T18:26:17.891Z,4.45
2023-07-22T18:31:20.970Z,6.78
2023-07-22T18:36:22.508Z,3.33
2023-07-22T18:41:24.050Z,3.30
2023-07-22T18:46:25.593Z,4.32
2023-07-22T18:51:32.602Z,2.90
2023-07-22T18:56:33.975Z,3.33
2023-07-22T19:01:35.426Z,2.97
2023-07-22T19:06:36.836Z,5.35
2023-07-22T19:11:38.267Z,5.22
2023-07-22T19:16:39.928Z,4.63
2023-07-22T19:21:41.325Z,5.20
2023-07-22T19:26:42.685Z,4.07
2023-07-22T19:31:44.218Z,5.68
2023-07-22T19:36:45.801Z,4.88
2023-07-22T19:41:47.201Z,4.43
2023-07-22T19:46:48.657Z,3.97
2023-07-22T19:51:50.098Z,4.57
2023-07-22T19:56:51.489Z,2.72
2023-07-22T20:01:52.917Z,2.00
2023-07-22T20:06:54.348Z,7.80
2023-07-22T20:11:55.743Z,7.57
2023-07-22T20:16:57.163Z,5.30
2023-07-22T20:21:58.573Z,6.28
2023-07-22T20:26:59.944Z,3.92
2023-07-22T20:32:03.637Z,6.40
2023-07-22T20:37:06.783Z,4.88
2023-07-22T20:42:08.145Z,4.32
2023-07-22T20:47:09.602Z,6.10
2023-07-22T20:52:11.020Z,5.75
2023-07-22T20:57:12.626Z,5.20
2023-07-22T21:02:14.260Z,3.05
2023-07-22T21:07:15.874Z,7.25
2023-07-22T21:12:17.313Z,4.97
2023-07-22T21:17:18.694Z,5.63
2023-07-22T21:22:20.059Z,5.35
2023-07-22T21:27:26.106Z,9.30
2023-07-22T21:32:35.883Z,6.97
2023-07-22T21:37:37.314Z,6.47
2023-07-22T21:42:38.698Z,7.82
2023-07-22T21:47:40.183Z,6.55
2023-07-22T21:52:42.427Z,6.95
2023-07-22T21:57:46.171Z,10.60
2023-07-22T22:02:47.662Z,8.52
2023-07-22T22:07:50.352Z,8.50
2023-07-22T22:12:51.749Z,8.10
2023-07-22T22:17:59.998Z,7.70
2023-07-22T22:23:04.077Z,15.45
2023-07-22T22:28:05.554Z,9.15
2023-07-22T22:33:06.981Z,8.00
2023-07-22T22:38:08.418Z,6.75
2023-07-22T22:43:09.811Z,7.35
2023-07-22T22:48:11.172Z,9.93
2023-07-22T22:53:12.714Z,16.00
2023-07-22T22:58:14.084Z,11.85
2023-07-22T23:03:15.635Z,9.23
2023-07-22T23:08:17.159Z,20.23
2023-07-22T23:13:18.570Z,7.88
2023-07-22T23:18:21.174Z,8.43
2023-07-22T23:23:22.798Z,10.98
2023-07-22T23:28:24.224Z,10.15
2023-07-22T23:33:29.258Z,7.05
2023-07-22T23:38:32.642Z,7.95
2023-07-22T23:43:34.056Z,9.23
2023-07-22T23:48:35.460Z,5.97
2023-07-22T23:53:36.886Z,8.07
2023-07-22T23:58:38.239Z,5.53
